sensor_id;sensor_type;location;lat;lon;timestamp;pressure;altitude;pressure_sealevel;temperature;humidity
73860;BME280;62197;51.632;13.700;2023-05-02T00:00:23;99982.28;;;12.21;77.32
73860;BME280;62197;51.632;13.700;2023-05-02T00:02:49;99983.28;;;12.10;82.70
73860;BME280;62197;51.632;13.700;2023-05-02T00:05:14;99990.41;;;12.06;79.15
73860;BME280;62197;51.632;13.700;2023-05-02T00:07:40;99988.81;;;12.10;77.88
73860;BME280;62197;51.632;13.700;2023-05-02T00:10:05;99987.44;;;12.13;77.21
73860;BME280;62197;51.632;13.700;2023-05-02T00:12:32;99987.75;;;12.16;75.96
73860;BME280;62197;51.632;13.700;2023-05-02T00:14:58;99980.06;;;12.23;75.67
73860;BME280;62197;51.632;13.700;2023-05-02T00:17:23;99979.25;;;12.23;75.41
73860;BME280;62197;51.632;13.700;2023-05-02T00:19:48;99977.03;;;12.25;75.78
73860;BME280;62197;51.632;13.700;2023-05-02T00:22:14;99987.34;;;12.34;74.56
73860;BME280;62197;51.632;13.700;2023-05-02T00:24:39;99980.13;;;12.33;74.05
73860;BME280;62197;51.632;13.700;2023-05-02T00:27:04;99977.66;;;12.32;75.65
73860;BME280;62197;51.632;13.700;2023-05-02T00:29:30;99982.91;;;12.33;75.98
73860;BME280;62197;51.632;13.700;2023-05-02T00:31:56;99983.47;;;12.35;75.36
73860;BME280;62197;51.632;13.700;2023-05-02T00:34:23;99980.72;;;12.35;75.52
73860;BME280;62197;51.632;13.700;2023-05-02T00:36:48;99974.91;;;12.37;75.27
73860;BME280;62197;51.632;13.700;2023-05-02T00:39:14;99974.09;;;12.36;77.42
73860;BME280;62197;51.632;13.700;2023-05-02T00:41:39;99981.81;;;12.34;76.97
73860;BME280;62197;51.632;13.700;2023-05-02T00:44:05;99971.28;;;12.31;77.59
73860;BME280;62197;51.632;13.700;2023-05-02T00:46:30;99968.50;;;12.31;79.76
73860;BME280;62197;51.632;13.700;2023-05-02T00:48:56;99977.38;;;12.33;80.41
73860;BME280;62197;51.632;13.700;2023-05-02T00:51:21;99968.47;;;12.26;81.85
73860;BME280;62197;51.632;13.700;2023-05-02T00:53:47;99968.69;;;12.20;83.40
73860;BME280;62197;51.632;13.700;2023-05-02T00:56:13;99975.91;;;12.21;84.79
73860;BME280;62197;51.632;13.700;2023-05-02T00:58:39;99974.75;;;12.17;84.01
73860;BME280;62197;51.632;13.700;2023-05-02T01:09:38;99986.38;;;11.87;86.09
73860;BME280;62197;51.632;13.700;2023-05-02T01:14:41;99983.03;;;11.85;86.52
73860;BME280;62197;51.632;13.700;2023-05-02T01:17:10;99988.88;;;11.89;85.84
73860;BME280;62197;51.632;13.700;2023-05-02T01:19:41;99985.53;;;11.87;85.80
73860;BME280;62197;51.632;13.700;2023-05-02T01:22:08;99986.38;;;11.87;86.25
73860;BME280;62197;51.632;13.700;2023-05-02T01:24:50;99980.84;;;11.87;86.47
73860;BME280;62197;51.632;13.700;2023-05-02T01:27:33;99982.53;;;11.88;87.33
73860;BME280;62197;51.632;13.700;2023-05-02T01:30:01;99982.53;;;11.88;87.95
73860;BME280;62197;51.632;13.700;2023-05-02T01:32:30;99990.25;;;11.86;87.01
73860;BME280;62197;51.632;13.700;2023-05-02T01:34:57;99993.81;;;11.87;88.50
73860;BME280;62197;51.632;13.700;2023-05-02T01:37:26;99997.97;;;11.84;88.80
73860;BME280;62197;51.632;13.700;2023-05-02T01:39:54;99996.28;;;11.83;90.02
73860;BME280;62197;51.632;13.700;2023-05-02T01:42:22;99993.25;;;11.85;89.14
73860;BME280;62197;51.632;13.700;2023-05-02T01:44:48;99996.28;;;11.83;90.04
73860;BME280;62197;51.632;13.700;2023-05-02T01:47:15;99998.47;;;11.81;89.40
73860;BME280;62197;51.632;13.700;2023-05-02T01:49:41;99999.34;;;11.87;88.84
73860;BME280;62197;51.632;13.700;2023-05-02T01:52:10;99996.34;;;11.88;89.45
73860;BME280;62197;51.632;13.700;2023-05-02T01:54:36;100007.97;;;11.90;89.64
73860;BME280;62197;51.632;13.700;2023-05-02T01:57:05;100006.84;;;11.86;90.74
73860;BME280;62197;51.632;13.700;2023-05-02T01:59:32;100004.00;;;11.81;91.18
73860;BME280;62197;51.632;13.700;2023-05-02T02:01:58;99994.56;;;11.77;91.07
73860;BME280;62197;51.632;13.700;2023-05-02T02:04:25;100000.34;;;11.75;91.36
73860;BME280;62197;51.632;13.700;2023-05-02T02:06:57;100006.75;;;11.81;91.56
73860;BME280;62197;51.632;13.700;2023-05-02T02:09:25;100001.19;;;11.76;92.66
73860;BME280;62197;51.632;13.700;2023-05-02T02:12:01;99996.63;;;11.65;94.55
73860;BME280;62197;51.632;13.700;2023-05-02T02:14:36;99998.75;;;11.58;95.66
73860;BME280;62197;51.632;13.700;2023-05-02T02:17:08;100001.47;;;11.53;95.26
73860;BME280;62197;51.632;13.700;2023-05-02T02:19:37;100007.00;;;11.53;95.20
73860;BME280;62197;51.632;13.700;2023-05-02T02:22:04;99990.28;;;11.43;95.26
73860;BME280;62197;51.632;13.700;2023-05-02T02:24:31;99994.97;;;11.42;94.56
73860;BME280;62197;51.632;13.700;2023-05-02T02:26:57;100009.00;;;11.36;95.21
73860;BME280;62197;51.632;13.700;2023-05-02T02:29:23;99989.09;;;11.12;96.19
73860;BME280;62197;51.632;13.700;2023-05-02T02:31:48;100013.28;;;11.27;95.94
73860;BME280;62197;51.632;13.700;2023-05-02T02:34:14;100008.28;;;11.24;95.86
73860;BME280;62197;51.632;13.700;2023-05-02T02:36:56;100009.84;;;11.15;96.97
73860;BME280;62197;51.632;13.700;2023-05-02T02:42:08;100021.75;;;10.99;98.01
73860;BME280;62197;51.632;13.700;2023-05-02T02:47:53;100025.31;;;10.77;100.00
73860;BME280;62197;51.632;13.700;2023-05-02T02:50:31;100036.38;;;10.77;100.00
73860;BME280;62197;51.632;13.700;2023-05-02T02:53:02;100040.38;;;10.70;100.00
73860;BME280;62197;51.632;13.700;2023-05-02T02:55:37;100031.28;;;10.69;100.00
73860;BME280;62197;51.632;13.700;2023-05-02T02:58:27;100035.63;;;10.65;100.00
73860;BME280;62197;51.632;13.700;2023-05-02T03:00:56;100038.53;;;10.59;100.00
73860;BME280;62197;51.632;13.700;2023-05-02T03:03:23;100044.56;;;10.56;100.00
73860;BME280;62197;51.632;13.700;2023-05-02T03:05:54;100047.50;;;10.49;100.00
73860;BME280;62197;51.632;13.700;2023-05-02T03:08:20;100048.75;;;10.42;100.00
73860;BME280;62197;51.632;13.700;2023-05-02T03:10:46;100046.25;;;10.40;100.00
73860;BME280;62197;51.632;13.700;2023-05-02T03:13:11;100060.78;;;10.36;100.00
73860;BME280;62197;51.632;13.700;2023-05-02T03:18:55;100057.81;;;10.37;100.00
73860;BME280;62197;51.632;13.700;2023-05-02T03:21:20;100062.13;;;10.33;100.00
73860;BME280;62197;51.632;13.700;2023-05-02T03:23:46;100064.19;;;10.26;100.00
73860;BME280;62197;51.632;13.700;2023-05-02T03:26:11;100068.06;;;10.25;100.00
73860;BME280;62197;51.632;13.700;2023-05-02T03:28:37;100075.63;;;10.18;100.00
73860;BME280;62197;51.632;13.700;2023-05-02T03:31:03;100076.16;;;10.15;100.00
73860;BME280;62197;51.632;13.700;2023-05-02T03:33:28;100073.91;;;10.12;100.00
73860;BME280;62197;51.632;13.700;2023-05-02T03:35:53;100072.31;;;10.04;100.00
73860;BME280;62197;51.632;13.700;2023-05-02T03:38:19;100077.03;;;10.04;100.00
73860;BME280;62197;51.632;13.700;2023-05-02T03:40:44;100082.63;;;10.09;100.00
73860;BME280;62197;51.632;13.700;2023-05-02T03:43:10;100090.28;;;10.07;100.00
73860;BME280;62197;51.632;13.700;2023-05-02T03:45:35;100084.97;;;10.00;100.00
73860;BME280;62197;51.632;13.700;2023-05-02T03:48:01;100103.88;;;9.97;100.00
73860;BME280;62197;51.632;13.700;2023-05-02T03:50:27;100097.19;;;9.93;100.00
73860;BME280;62197;51.632;13.700;2023-05-02T03:52:52;100111.47;;;9.90;100.00
73860;BME280;62197;51.632;13.700;2023-05-02T03:55:17;100110.28;;;9.86;100.00
73860;BME280;62197;51.632;13.700;2023-05-02T03:57:43;100110.59;;;10.01;100.00
73860;BME280;62197;51.632;13.700;2023-05-02T04:00:09;100108.91;;;10.12;100.00
73860;BME280;62197;51.632;13.700;2023-05-02T04:02:34;100129.00;;;10.24;100.00
73860;BME280;62197;51.632;13.700;2023-05-02T04:05:00;100120.88;;;10.34;100.00
73860;BME280;62197;51.632;13.700;2023-05-02T04:07:25;100126.84;;;10.42;98.42
73860;BME280;62197;51.632;13.700;2023-05-02T04:09:50;100136.38;;;10.51;96.61
73860;BME280;62197;51.632;13.700;2023-05-02T04:12:16;100138.06;;;10.52;97.53
73860;BME280;62197;51.632;13.700;2023-05-02T04:14:41;100126.50;;;10.55;96.91
73860;BME280;62197;51.632;13.700;2023-05-02T04:17:07;100138.13;;;10.57;96.16
73860;BME280;62197;51.632;13.700;2023-05-02T04:19:33;100136.88;;;10.48;95.53
73860;BME280;62197;51.632;13.700;2023-05-02T04:21:58;100138.78;;;10.48;95.41
73860;BME280;62197;51.632;13.700;2023-05-02T04:24:24;100147.41;;;10.51;95.86
73860;BME280;62197;51.632;13.700;2023-05-02T04:26:49;100158.53;;;10.56;95.19
73860;BME280;62197;51.632;13.700;2023-05-02T04:29:14;100158.38;;;10.46;96.63
73860;BME280;62197;51.632;13.700;2023-05-02T04:31:40;100160.94;;;10.36;96.37
73860;BME280;62197;51.632;13.700;2023-05-02T04:34:06;100179.66;;;10.34;96.26
73860;BME280;62197;51.632;13.700;2023-05-02T04:36:31;100183.50;;;10.33;96.94
73860;BME280;62197;51.632;13.700;2023-05-02T04:38:58;100181.47;;;10.29;95.51
73860;BME280;62197;51.632;13.700;2023-05-02T04:41:23;100186.91;;;10.24;96.37
73860;BME280;62197;51.632;13.700;2023-05-02T04:43:49;100185.47;;;10.21;98.27
73860;BME280;62197;51.632;13.700;2023-05-02T04:46:15;100188.22;;;10.21;96.61
73860;BME280;62197;51.632;13.700;2023-05-02T04:48:40;100185.94;;;10.18;96.23
73860;BME280;62197;51.632;13.700;2023-05-02T04:51:07;100199.84;;;10.23;96.46
73860;BME280;62197;51.632;13.700;2023-05-02T04:53:33;100190.97;;;10.21;94.98
73860;BME280;62197;51.632;13.700;2023-05-02T04:55:59;100200.06;;;10.33;95.21
73860;BME280;62197;51.632;13.700;2023-05-02T04:58:24;100206.16;;;10.35;93.97
73860;BME280;62197;51.632;13.700;2023-05-02T05:00:49;100208.47;;;10.55;93.21
73860;BME280;62197;51.632;13.700;2023-05-02T05:03:15;100209.47;;;10.49;92.05
73860;BME280;62197;51.632;13.700;2023-05-02T05:05:40;100217.97;;;10.47;91.44
73860;BME280;62197;51.632;13.700;2023-05-02T05:08:05;100227.34;;;10.46;92.78
73860;BME280;62197;51.632;13.700;2023-05-02T05:10:31;100221.81;;;10.46;90.87
73860;BME280;62197;51.632;13.700;2023-05-02T05:12:57;100233.88;;;10.57;90.24
73860;BME280;62197;51.632;13.700;2023-05-02T05:15:22;100234.00;;;10.78;91.24
73860;BME280;62197;51.632;13.700;2023-05-02T05:17:50;100235.56;;;10.74;90.31
73860;BME280;62197;51.632;13.700;2023-05-02T05:20:15;100232.41;;;10.82;89.23
73860;BME280;62197;51.632;13.700;2023-05-02T05:22:41;100249.34;;;11.03;89.36
73860;BME280;62197;51.632;13.700;2023-05-02T05:25:07;100237.91;;;11.11;87.58
73860;BME280;62197;51.632;13.700;2023-05-02T05:27:33;100236.47;;;11.08;86.12
73860;BME280;62197;51.632;13.700;2023-05-02T05:29:59;100240.81;;;11.21;85.59
73860;BME280;62197;51.632;13.700;2023-05-02T05:32:24;100255.69;;;11.36;84.82
73860;BME280;62197;51.632;13.700;2023-05-02T05:34:53;100246.25;;;11.49;84.86
73860;BME280;62197;51.632;13.700;2023-05-02T05:37:19;100263.97;;;11.86;82.21
73860;BME280;62197;51.632;13.700;2023-05-02T05:39:45;100259.69;;;11.95;81.68
73860;BME280;62197;51.632;13.700;2023-05-02T05:42:11;100251.84;;;12.09;80.86
73860;BME280;62197;51.632;13.700;2023-05-02T05:44:37;100257.34;;;11.87;78.97
73860;BME280;62197;51.632;13.700;2023-05-02T05:47:02;100258.50;;;11.91;80.65
73860;BME280;62197;51.632;13.700;2023-05-02T05:49:28;100266.97;;;12.23;79.81
73860;BME280;62197;51.632;13.700;2023-05-02T05:51:54;100255.94;;;12.06;78.90
73860;BME280;62197;51.632;13.700;2023-05-02T05:54:19;100274.97;;;12.19;79.84
73860;BME280;62197;51.632;13.700;2023-05-02T05:56:45;100274.44;;;12.44;78.96
73860;BME280;62197;51.632;13.700;2023-05-02T05:59:10;100277.97;;;12.39;78.92
73860;BME280;62197;51.632;13.700;2023-05-02T06:01:36;100261.38;;;11.96;80.79
73860;BME280;62197;51.632;13.700;2023-05-02T06:04:02;100264.56;;;11.88;82.10
73860;BME280;62197;51.632;13.700;2023-05-02T06:06:29;100282.31;;;11.92;81.16
73860;BME280;62197;51.632;13.700;2023-05-02T06:08:55;100305.56;;;12.13;81.67
73860;BME280;62197;51.632;13.700;2023-05-02T06:11:21;100321.41;;;12.01;82.01
73860;BME280;62197;51.632;13.700;2023-05-02T06:13:46;100322.22;;;11.96;81.65
73860;BME280;62197;51.632;13.700;2023-05-02T06:16:11;100324.06;;;12.12;82.40
73860;BME280;62197;51.632;13.700;2023-05-02T06:18:37;100332.34;;;12.29;81.46
73860;BME280;62197;51.632;13.700;2023-05-02T06:21:03;100333.59;;;12.59;79.70
73860;BME280;62197;51.632;13.700;2023-05-02T06:23:29;100336.72;;;12.68;78.96
73860;BME280;62197;51.632;13.700;2023-05-02T06:25:58;100346.84;;;12.57;80.22
73860;BME280;62197;51.632;13.700;2023-05-02T06:28:24;100346.09;;;12.24;81.41
73860;BME280;62197;51.632;13.700;2023-05-02T06:30:57;100356.69;;;12.10;81.42
73860;BME280;62197;51.632;13.700;2023-05-02T06:33:23;100355.03;;;12.09;82.74
73860;BME280;62197;51.632;13.700;2023-05-02T06:35:52;100377.16;;;12.09;84.26
73860;BME280;62197;51.632;13.700;2023-05-02T06:38:17;100371.94;;;12.13;83.72
73860;BME280;62197;51.632;13.700;2023-05-02T06:40:43;100377.19;;;11.76;86.16
73860;BME280;62197;51.632;13.700;2023-05-02T06:43:09;100388.72;;;11.73;86.25
73860;BME280;62197;51.632;13.700;2023-05-02T06:45:35;100396.88;;;11.79;88.59
73860;BME280;62197;51.632;13.700;2023-05-02T06:48:00;100401.66;;;11.84;86.54
73860;BME280;62197;51.632;13.700;2023-05-02T06:50:26;100410.66;;;11.63;86.56
73860;BME280;62197;51.632;13.700;2023-05-02T06:52:51;100409.84;;;11.79;86.20
73860;BME280;62197;51.632;13.700;2023-05-02T06:55:16;100427.78;;;11.93;87.45
73860;BME280;62197;51.632;13.700;2023-05-02T06:57:41;100423.59;;;12.07;87.15
73860;BME280;62197;51.632;13.700;2023-05-02T07:00:08;100431.59;;;11.59;89.33
73860;BME280;62197;51.632;13.700;2023-05-02T07:02:34;100446.41;;;11.53;91.76
73860;BME280;62197;51.632;13.700;2023-05-02T07:04:59;100453.84;;;11.52;92.27
73860;BME280;62197;51.632;13.700;2023-05-02T07:07:24;100447.47;;;11.52;92.20
73860;BME280;62197;51.632;13.700;2023-05-02T07:09:50;100458.31;;;11.53;90.96
73860;BME280;62197;51.632;13.700;2023-05-02T07:12:16;100461.06;;;11.53;93.71
73860;BME280;62197;51.632;13.700;2023-05-02T07:14:41;100456.94;;;11.84;91.54
73860;BME280;62197;51.632;13.700;2023-05-02T07:17:07;100457.44;;;11.81;91.14
73860;BME280;62197;51.632;13.700;2023-05-02T07:19:33;100458.97;;;12.05;91.35
73860;BME280;62197;51.632;13.700;2023-05-02T07:21:58;100462.31;;;12.07;90.15
73860;BME280;62197;51.632;13.700;2023-05-02T07:24:23;100469.72;;;12.02;90.43
73860;BME280;62197;51.632;13.700;2023-05-02T07:26:49;100466.75;;;11.92;88.77
73860;BME280;62197;51.632;13.700;2023-05-02T07:29:14;100463.47;;;11.78;89.21
73860;BME280;62197;51.632;13.700;2023-05-02T07:31:39;100474.31;;;12.13;89.53
73860;BME280;62197;51.632;13.700;2023-05-02T07:34:05;100470.53;;;12.19;88.04
73860;BME280;62197;51.632;13.700;2023-05-02T07:36:30;100482.50;;;12.57;86.19
73860;BME280;62197;51.632;13.700;2023-05-02T07:38:56;100491.47;;;12.48;87.87
73860;BME280;62197;51.632;13.700;2023-05-02T07:41:22;100487.56;;;12.82;85.24
73860;BME280;62197;51.632;13.700;2023-05-02T07:43:47;100484.03;;;12.70;85.94
73860;BME280;62197;51.632;13.700;2023-05-02T07:46:12;100500.19;;;12.56;86.64
73860;BME280;62197;51.632;13.700;2023-05-02T07:48:38;100497.72;;;12.77;85.75
73860;BME280;62197;51.632;13.700;2023-05-02T07:51:10;100496.28;;;12.91;83.65
73860;BME280;62197;51.632;13.700;2023-05-02T07:53:35;100505.44;;;12.75;85.25
73860;BME280;62197;51.632;13.700;2023-05-02T07:56:03;100504.50;;;12.86;85.22
73860;BME280;62197;51.632;13.700;2023-05-02T07:58:29;100511.34;;;13.00;84.64
73860;BME280;62197;51.632;13.700;2023-05-02T08:00:54;100522.75;;;13.20;84.21
73860;BME280;62197;51.632;13.700;2023-05-02T08:03:19;100523.69;;;13.09;82.42
73860;BME280;62197;51.632;13.700;2023-05-02T08:05:45;100516.47;;;13.08;83.82
73860;BME280;62197;51.632;13.700;2023-05-02T08:08:10;100512.69;;;13.14;82.88
73860;BME280;62197;51.632;13.700;2023-05-02T08:10:36;100527.34;;;13.36;82.79
73860;BME280;62197;51.632;13.700;2023-05-02T08:13:01;100520.56;;;13.70;80.28
73860;BME280;62197;51.632;13.700;2023-05-02T08:15:26;100525.28;;;13.96;78.64
73860;BME280;62197;51.632;13.700;2023-05-02T08:17:52;100523.84;;;13.94;79.04
73860;BME280;62197;51.632;13.700;2023-05-02T08:20:17;100532.25;;;13.99;79.78
73860;BME280;62197;51.632;13.700;2023-05-02T08:22:43;100541.56;;;14.46;80.20
73860;BME280;62197;51.632;13.700;2023-05-02T08:25:08;100543.16;;;14.69;76.80
73860;BME280;62197;51.632;13.700;2023-05-02T08:27:34;100540.78;;;14.87;75.24
73860;BME280;62197;51.632;13.700;2023-05-02T08:29:59;100538.66;;;14.99;75.97
73860;BME280;62197;51.632;13.700;2023-05-02T08:32:24;100545.69;;;15.17;75.96
73860;BME280;62197;51.632;13.700;2023-05-02T08:34:53;100543.25;;;14.79;74.02
73860;BME280;62197;51.632;13.700;2023-05-02T08:37:19;100551.13;;;14.60;73.96
73860;BME280;62197;51.632;13.700;2023-05-02T08:39:44;100549.59;;;14.42;76.27
73860;BME280;62197;51.632;13.700;2023-05-02T08:42:10;100552.50;;;14.58;76.86
73860;BME280;62197;51.632;13.700;2023-05-02T08:44:36;100561.25;;;15.18;74.59
73860;BME280;62197;51.632;13.700;2023-05-02T08:47:01;100556.88;;;15.27;72.83
73860;BME280;62197;51.632;13.700;2023-05-02T08:49:29;100559.75;;;15.42;73.05
73860;BME280;62197;51.632;13.700;2023-05-02T08:51:55;100560.94;;;15.56;73.01
73860;BME280;62197;51.632;13.700;2023-05-02T08:54:22;100559.84;;;14.37;75.92
73860;BME280;62197;51.632;13.700;2023-05-02T08:56:50;100562.19;;;14.23;77.89
73860;BME280;62197;51.632;13.700;2023-05-02T08:59:16;100573.38;;;13.80;79.44
73860;BME280;62197;51.632;13.700;2023-05-02T09:01:43;100584.94;;;13.72;81.18
73860;BME280;62197;51.632;13.700;2023-05-02T09:04:10;100582.34;;;13.66;81.42
73860;BME280;62197;51.632;13.700;2023-05-02T09:06:36;100580.59;;;13.38;82.56
73860;BME280;62197;51.632;13.700;2023-05-02T09:09:01;100575.91;;;13.38;83.91
73860;BME280;62197;51.632;13.700;2023-05-02T09:11:28;100584.69;;;13.52;83.79
73860;BME280;62197;51.632;13.700;2023-05-02T09:13:53;100595.13;;;13.23;85.72
73860;BME280;62197;51.632;13.700;2023-05-02T09:16:21;100593.53;;;13.49;85.78
73860;BME280;62197;51.632;13.700;2023-05-02T09:18:49;100598.50;;;13.47;85.92
73860;BME280;62197;51.632;13.700;2023-05-02T09:21:21;100609.38;;;13.53;84.23
73860;BME280;62197;51.632;13.700;2023-05-02T09:23:51;100594.34;;;13.49;85.54
73860;BME280;62197;51.632;13.700;2023-05-02T09:26:27;100594.66;;;13.53;84.36
73860;BME280;62197;51.632;13.700;2023-05-02T09:29:00;100615.81;;;13.59;82.83
73860;BME280;62197;51.632;13.700;2023-05-02T09:31:28;100616.34;;;13.56;83.56
73860;BME280;62197;51.632;13.700;2023-05-02T09:33:55;100624.97;;;13.38;84.61
73860;BME280;62197;51.632;13.700;2023-05-02T09:36:21;100625.06;;;13.43;84.69
73860;BME280;62197;51.632;13.700;2023-05-02T09:38:48;100630.63;;;13.26;86.57
73860;BME280;62197;51.632;13.700;2023-05-02T09:41:13;100634.88;;;13.72;85.39
73860;BME280;62197;51.632;13.700;2023-05-02T09:43:39;100630.13;;;13.73;85.29
73860;BME280;62197;51.632;13.700;2023-05-02T09:46:09;100635.06;;;14.14;83.44
73860;BME280;62197;51.632;13.700;2023-05-02T09:48:55;100643.16;;;14.69;80.09
73860;BME280;62197;51.632;13.700;2023-05-02T09:51:21;100640.72;;;14.45;80.65
73860;BME280;62197;51.632;13.700;2023-05-02T09:53:47;100647.25;;;14.34;79.48
73860;BME280;62197;51.632;13.700;2023-05-02T09:56:12;100634.09;;;14.03;79.55
73860;BME280;62197;51.632;13.700;2023-05-02T09:58:38;100644.38;;;14.83;80.94
73860;BME280;62197;51.632;13.700;2023-05-02T10:01:03;100647.41;;;14.76;77.78
73860;BME280;62197;51.632;13.700;2023-05-02T10:03:29;100656.91;;;14.54;77.04
73860;BME280;62197;51.632;13.700;2023-05-02T10:05:56;100655.16;;;15.06;76.36
73860;BME280;62197;51.632;13.700;2023-05-02T10:08:26;100670.69;;;15.02;76.93
73860;BME280;62197;51.632;13.700;2023-05-02T10:10:54;100670.34;;;15.35;74.02
73860;BME280;62197;51.632;13.700;2023-05-02T10:13:21;100655.56;;;14.88;76.38
73860;BME280;62197;51.632;13.700;2023-05-02T10:15:50;100668.69;;;15.34;74.83
73860;BME280;62197;51.632;13.700;2023-05-02T10:18:45;100659.38;;;14.82;75.93
73860;BME280;62197;51.632;13.700;2023-05-02T10:21:15;100664.03;;;15.08;75.78
73860;BME280;62197;51.632;13.700;2023-05-02T10:23:42;100663.38;;;15.74;75.00
73860;BME280;62197;51.632;13.700;2023-05-02T10:26:11;100667.16;;;15.53;73.10
73860;BME280;62197;51.632;13.700;2023-05-02T10:28:37;100670.53;;;15.55;73.08
73860;BME280;62197;51.632;13.700;2023-05-02T10:31:04;100664.19;;;15.28;73.25
73860;BME280;62197;51.632;13.700;2023-05-02T10:33:30;100663.44;;;15.01;75.39
73860;BME280;62197;51.632;13.700;2023-05-02T10:35:57;100669.84;;;15.38;74.96
73860;BME280;62197;51.632;13.700;2023-05-02T10:38:23;100657.00;;;14.95;74.71
73860;BME280;62197;51.632;13.700;2023-05-02T10:40:52;100668.47;;;15.04;76.47
73860;BME280;62197;51.632;13.700;2023-05-02T10:43:22;100663.59;;;14.58;78.30
73860;BME280;62197;51.632;13.700;2023-05-02T10:45:48;100669.34;;;14.24;78.97
73860;BME280;62197;51.632;13.700;2023-05-02T10:48:15;100676.56;;;14.25;79.22
73860;BME280;62197;51.632;13.700;2023-05-02T10:50:48;100674.03;;;13.97;81.03
73860;BME280;62197;51.632;13.700;2023-05-02T10:53:23;100677.56;;;13.71;82.80
73860;BME280;62197;51.632;13.700;2023-05-02T10:56:14;100686.34;;;14.06;83.08
73860;BME280;62197;51.632;13.700;2023-05-02T10:58:40;100683.31;;;14.56;80.94
73860;BME280;62197;51.632;13.700;2023-05-02T11:01:32;100689.28;;;14.70;78.75
73860;BME280;62197;51.632;13.700;2023-05-02T11:04:03;100682.69;;;14.49;79.12
73860;BME280;62197;51.632;13.700;2023-05-02T11:06:30;100685.75;;;14.48;78.58
73860;BME280;62197;51.632;13.700;2023-05-02T11:11:41;100691.63;;;15.51;73.68
73860;BME280;62197;51.632;13.700;2023-05-02T11:14:07;100688.59;;;16.09;72.08
73860;BME280;62197;51.632;13.700;2023-05-02T11:19:24;100690.94;;;15.34;75.42
73860;BME280;62197;51.632;13.700;2023-05-02T11:21:50;100700.69;;;15.36;74.61
73860;BME280;62197;51.632;13.700;2023-05-02T11:24:37;100694.91;;;15.90;72.88
73860;BME280;62197;51.632;13.700;2023-05-02T11:29:55;100695.47;;;16.54;72.00
73860;BME280;62197;51.632;13.700;2023-05-02T11:32:21;100704.19;;;16.10;73.23
73860;BME280;62197;51.632;13.700;2023-05-02T11:34:47;100697.69;;;16.52;71.71
73860;BME280;62197;51.632;13.700;2023-05-02T11:37:15;100702.91;;;15.76;73.72
73860;BME280;62197;51.632;13.700;2023-05-02T11:39:41;100702.06;;;16.27;72.18
73860;BME280;62197;51.632;13.700;2023-05-02T11:42:06;100698.72;;;16.36;72.56
73860;BME280;62197;51.632;13.700;2023-05-02T11:44:32;100701.09;;;16.94;68.32
73860;BME280;62197;51.632;13.700;2023-05-02T11:46:57;100698.25;;;17.79;66.58
73860;BME280;62197;51.632;13.700;2023-05-02T11:49:23;100699.34;;;18.96;61.79
73860;BME280;62197;51.632;13.700;2023-05-02T11:51:48;100688.09;;;18.14;61.95
73860;BME280;62197;51.632;13.700;2023-05-02T11:54:18;100693.00;;;17.53;65.01
73860;BME280;62197;51.632;13.700;2023-05-02T11:56:44;100682.09;;;17.66;66.45
73860;BME280;62197;51.632;13.700;2023-05-02T11:59:09;100686.81;;;18.40;61.20
73860;BME280;62197;51.632;13.700;2023-05-02T12:01:35;100684.09;;;17.15;64.15
73860;BME280;62197;51.632;13.700;2023-05-02T12:04:04;100691.31;;;16.76;67.06
73860;BME280;62197;51.632;13.700;2023-05-02T12:06:31;100686.53;;;17.67;63.03
73860;BME280;62197;51.632;13.700;2023-05-02T12:09:06;100678.06;;;19.00;59.29
73860;BME280;62197;51.632;13.700;2023-05-02T12:11:32;100679.38;;;20.78;53.25
73860;BME280;62197;51.632;13.700;2023-05-02T12:13:57;100683.53;;;19.15;58.04
73860;BME280;62197;51.632;13.700;2023-05-02T12:16:23;100685.84;;;19.03;54.80
73860;BME280;62197;51.632;13.700;2023-05-02T12:18:48;100690.44;;;20.32;51.88
73860;BME280;62197;51.632;13.700;2023-05-02T12:21:14;100685.97;;;20.50;51.89
73860;BME280;62197;51.632;13.700;2023-05-02T12:23:39;100683.16;;;19.55;53.30
73860;BME280;62197;51.632;13.700;2023-05-02T12:26:19;100681.22;;;18.45;57.06
73860;BME280;62197;51.632;13.700;2023-05-02T12:28:49;100678.75;;;17.54;58.19
73860;BME280;62197;51.632;13.700;2023-05-02T12:31:15;100683.22;;;19.17;54.45
73860;BME280;62197;51.632;13.700;2023-05-02T12:33:41;100692.72;;;18.87;53.94
73860;BME280;62197;51.632;13.700;2023-05-02T12:36:07;100682.78;;;20.75;50.16
73860;BME280;62197;51.632;13.700;2023-05-02T12:38:34;100688.22;;;21.68;47.13
73860;BME280;62197;51.632;13.700;2023-05-02T12:40:59;100689.34;;;21.86;44.98
73860;BME280;62197;51.632;13.700;2023-05-02T12:43:25;100687.38;;;22.27;42.66
73860;BME280;62197;51.632;13.700;2023-05-02T12:46:08;100694.59;;;22.55;41.58
73860;BME280;62197;51.632;13.700;2023-05-02T12:48:33;100682.25;;;22.42;42.19
73860;BME280;62197;51.632;13.700;2023-05-02T12:50:59;100687.84;;;20.36;49.28
73860;BME280;62197;51.632;13.700;2023-05-02T12:53:56;100683.75;;;19.24;50.76
73860;BME280;62197;51.632;13.700;2023-05-02T12:56:22;100690.66;;;18.59;52.27
73860;BME280;62197;51.632;13.700;2023-05-02T12:58:48;100691.78;;;19.30;50.08
73860;BME280;62197;51.632;13.700;2023-05-02T13:01:14;100688.81;;;17.60;57.83
73860;BME280;62197;51.632;13.700;2023-05-02T13:03:41;100703.34;;;17.32;60.89
73860;BME280;62197;51.632;13.700;2023-05-02T13:06:07;100701.56;;;15.84;65.79
73860;BME280;62197;51.632;13.700;2023-05-02T13:08:33;100702.41;;;15.06;70.72